Terminal Aerodrome Forecast
Issued by NWS Cheyenne, WY

Home | Current Version | Previous Version | Text Only | Print | Product List | Glossary On
Versions: 1 2 3 4 5 6 7 8 9 10 11 12 13 14 15 16 17
000
FTUS45 KCYS 230141 AAB
TAFCYS
TAF AMD
KCYS 230141Z 2302/2324 06008KT P6SM VCSH SCT020 BKN040
     FM230500 VRB03KT P6SM BKN045
     FM231800 16008KT P6SM BKN060=

USA.gov is the U.S. government's official web portal to all federal, state and local government web resources and services.